sensor_id;sensor_type;location;lat;lon;timestamp;P1;durP1;ratioP1;P2;durP2;ratioP2
8574;SDS011;4325;42.520;27.448;2023-04-24T00:01:24;22.20;;;15.47;;
8574;SDS011;4325;42.520;27.448;2023-04-24T00:03:51;30.30;;;16.03;;
8574;SDS011;4325;42.520;27.448;2023-04-24T00:06:19;23.63;;;13.87;;
8574;SDS011;4325;42.520;27.448;2023-04-24T00:08:48;22.43;;;14.23;;
8574;SDS011;4325;42.520;27.448;2023-04-24T00:11:15;21.13;;;12.80;;
8574;SDS011;4325;42.520;27.448;2023-04-24T00:13:42;22.07;;;11.80;;
8574;SDS011;4325;42.520;27.448;2023-04-24T00:16:09;22.77;;;9.77;;
8574;SDS011;4325;42.520;27.448;2023-04-24T00:18:36;21.30;;;11.93;;
8574;SDS011;4325;42.520;27.448;2023-04-24T00:21:03;21.03;;;10.17;;
8574;SDS011;4325;42.520;27.448;2023-04-24T00:23:31;19.50;;;11.37;;
8574;SDS011;4325;42.520;27.448;2023-04-24T00:25:58;16.97;;;10.77;;
8574;SDS011;4325;42.520;27.448;2023-04-24T00:28:25;22.83;;;11.77;;
8574;SDS011;4325;42.520;27.448;2023-04-24T00:30:51;21.90;;;13.30;;
8574;SDS011;4325;42.520;27.448;2023-04-24T00:33:18;30.43;;;17.63;;
8574;SDS011;4325;42.520;27.448;2023-04-24T00:35:45;34.67;;;18.90;;
8574;SDS011;4325;42.520;27.448;2023-04-24T00:38:12;30.17;;;17.53;;
8574;SDS011;4325;42.520;27.448;2023-04-24T00:40:40;29.93;;;17.90;;
8574;SDS011;4325;42.520;27.448;2023-04-24T00:43:07;31.27;;;15.53;;
8574;SDS011;4325;42.520;27.448;2023-04-24T00:45:35;29.67;;;15.63;;
8574;SDS011;4325;42.520;27.448;2023-04-24T00:48:02;33.00;;;16.37;;
8574;SDS011;4325;42.520;27.448;2023-04-24T00:50:30;31.23;;;17.73;;
8574;SDS011;4325;42.520;27.448;2023-04-24T00:52:57;32.73;;;19.03;;
8574;SDS011;4325;42.520;27.448;2023-04-24T00:55:24;35.33;;;19.80;;
8574;SDS011;4325;42.520;27.448;2023-04-24T00:57:53;40.77;;;23.40;;
8574;SDS011;4325;42.520;27.448;2023-04-24T01:00:20;39.43;;;23.27;;
8574;SDS011;4325;42.520;27.448;2023-04-24T01:02:47;44.60;;;24.43;;
8574;SDS011;4325;42.520;27.448;2023-04-24T01:05:16;48.17;;;26.37;;
8574;SDS011;4325;42.520;27.448;2023-04-24T01:07:45;41.20;;;22.10;;
8574;SDS011;4325;42.520;27.448;2023-04-24T01:10:14;39.47;;;21.40;;
8574;SDS011;4325;42.520;27.448;2023-04-24T01:12:42;44.90;;;23.97;;
8574;SDS011;4325;42.520;27.448;2023-04-24T01:15:11;63.87;;;47.37;;
8574;SDS011;4325;42.520;27.448;2023-04-24T01:17:38;39.87;;;27.60;;
8574;SDS011;4325;42.520;27.448;2023-04-24T01:20:06;34.43;;;19.53;;
8574;SDS011;4325;42.520;27.448;2023-04-24T01:22:35;39.33;;;18.40;;
8574;SDS011;4325;42.520;27.448;2023-04-24T01:25:03;36.03;;;19.30;;
8574;SDS011;4325;42.520;27.448;2023-04-24T01:27:31;41.80;;;23.37;;
8574;SDS011;4325;42.520;27.448;2023-04-24T01:29:58;44.87;;;25.07;;
8574;SDS011;4325;42.520;27.448;2023-04-24T01:32:25;45.93;;;24.37;;
8574;SDS011;4325;42.520;27.448;2023-04-24T01:34:53;41.70;;;24.50;;
8574;SDS011;4325;42.520;27.448;2023-04-24T01:37:20;40.17;;;20.87;;
8574;SDS011;4325;42.520;27.448;2023-04-24T01:39:48;34.90;;;18.17;;
8574;SDS011;4325;42.520;27.448;2023-04-24T01:42:15;36.20;;;19.63;;
8574;SDS011;4325;42.520;27.448;2023-04-24T01:44:42;32.60;;;15.17;;
8574;SDS011;4325;42.520;27.448;2023-04-24T01:47:10;27.83;;;14.40;;
8574;SDS011;4325;42.520;27.448;2023-04-24T01:49:37;28.40;;;15.37;;
8574;SDS011;4325;42.520;27.448;2023-04-24T01:52:04;20.63;;;14.33;;
8574;SDS011;4325;42.520;27.448;2023-04-24T01:54:31;29.10;;;14.63;;
8574;SDS011;4325;42.520;27.448;2023-04-24T01:56:59;21.63;;;12.40;;
8574;SDS011;4325;42.520;27.448;2023-04-24T01:59:27;27.00;;;13.43;;
8574;SDS011;4325;42.520;27.448;2023-04-24T02:01:54;28.87;;;16.33;;
8574;SDS011;4325;42.520;27.448;2023-04-24T02:04:21;26.70;;;14.63;;
8574;SDS011;4325;42.520;27.448;2023-04-24T02:06:48;28.37;;;16.03;;
8574;SDS011;4325;42.520;27.448;2023-04-24T02:09:15;25.30;;;13.43;;
8574;SDS011;4325;42.520;27.448;2023-04-24T02:11:42;22.40;;;13.27;;
8574;SDS011;4325;42.520;27.448;2023-04-24T02:14:10;23.57;;;14.37;;
8574;SDS011;4325;42.520;27.448;2023-04-24T02:16:37;27.03;;;14.47;;
8574;SDS011;4325;42.520;27.448;2023-04-24T02:19:04;29.43;;;15.40;;
8574;SDS011;4325;42.520;27.448;2023-04-24T02:21:30;29.87;;;15.97;;
8574;SDS011;4325;42.520;27.448;2023-04-24T02:23:57;27.17;;;15.87;;
8574;SDS011;4325;42.520;27.448;2023-04-24T02:26:24;30.80;;;15.00;;
8574;SDS011;4325;42.520;27.448;2023-04-24T02:28:51;20.07;;;13.87;;
8574;SDS011;4325;42.520;27.448;2023-04-24T02:31:19;26.70;;;14.23;;
8574;SDS011;4325;42.520;27.448;2023-04-24T02:33:46;33.03;;;18.80;;
8574;SDS011;4325;42.520;27.448;2023-04-24T02:36:13;24.73;;;13.13;;
8574;SDS011;4325;42.520;27.448;2023-04-24T02:38:40;18.73;;;10.50;;
8574;SDS011;4325;42.520;27.448;2023-04-24T02:41:07;13.50;;;10.77;;
8574;SDS011;4325;42.520;27.448;2023-04-24T02:43:34;24.17;;;14.93;;
8574;SDS011;4325;42.520;27.448;2023-04-24T02:46:01;20.40;;;14.30;;
8574;SDS011;4325;42.520;27.448;2023-04-24T02:48:29;26.63;;;16.27;;
8574;SDS011;4325;42.520;27.448;2023-04-24T02:50:56;19.30;;;13.73;;
8574;SDS011;4325;42.520;27.448;2023-04-24T02:53:23;19.70;;;13.63;;
8574;SDS011;4325;42.520;27.448;2023-04-24T02:55:50;24.90;;;14.90;;
8574;SDS011;4325;42.520;27.448;2023-04-24T02:58:17;19.57;;;13.60;;
8574;SDS011;4325;42.520;27.448;2023-04-24T03:00:45;19.50;;;12.53;;
8574;SDS011;4325;42.520;27.448;2023-04-24T03:03:11;25.03;;;13.00;;
8574;SDS011;4325;42.520;27.448;2023-04-24T03:05:40;17.67;;;12.07;;
8574;SDS011;4325;42.520;27.448;2023-04-24T03:08:07;23.17;;;14.23;;
8574;SDS011;4325;42.520;27.448;2023-04-24T03:10:34;24.73;;;13.60;;
8574;SDS011;4325;42.520;27.448;2023-04-24T03:13:00;19.30;;;12.37;;
8574;SDS011;4325;42.520;27.448;2023-04-24T03:15:27;18.57;;;12.57;;
8574;SDS011;4325;42.520;27.448;2023-04-24T03:17:54;22.03;;;13.83;;
8574;SDS011;4325;42.520;27.448;2023-04-24T03:20:21;27.10;;;14.70;;
8574;SDS011;4325;42.520;27.448;2023-04-24T03:22:49;26.97;;;15.27;;
8574;SDS011;4325;42.520;27.448;2023-04-24T03:25:16;25.77;;;14.17;;
8574;SDS011;4325;42.520;27.448;2023-04-24T03:27:43;27.57;;;18.13;;
8574;SDS011;4325;42.520;27.448;2023-04-24T03:30:10;31.83;;;15.37;;
8574;SDS011;4325;42.520;27.448;2023-04-24T03:32:37;21.23;;;15.37;;
8574;SDS011;4325;42.520;27.448;2023-04-24T03:35:05;26.90;;;18.90;;
8574;SDS011;4325;42.520;27.448;2023-04-24T03:37:33;30.03;;;17.47;;
8574;SDS011;4325;42.520;27.448;2023-04-24T03:40:02;35.83;;;24.20;;
8574;SDS011;4325;42.520;27.448;2023-04-24T03:42:29;32.23;;;22.23;;
8574;SDS011;4325;42.520;27.448;2023-04-24T03:44:56;37.30;;;21.73;;
8574;SDS011;4325;42.520;27.448;2023-04-24T03:47:23;33.77;;;20.30;;
8574;SDS011;4325;42.520;27.448;2023-04-24T03:49:50;41.60;;;24.17;;
8574;SDS011;4325;42.520;27.448;2023-04-24T03:52:17;45.70;;;24.20;;
8574;SDS011;4325;42.520;27.448;2023-04-24T03:54:44;46.60;;;26.20;;
8574;SDS011;4325;42.520;27.448;2023-04-24T03:57:12;46.30;;;24.53;;
8574;SDS011;4325;42.520;27.448;2023-04-24T03:59:39;42.73;;;26.27;;
8574;SDS011;4325;42.520;27.448;2023-04-24T04:02:06;34.87;;;20.43;;
8574;SDS011;4325;42.520;27.448;2023-04-24T04:04:32;45.00;;;21.73;;
8574;SDS011;4325;42.520;27.448;2023-04-24T04:06:59;31.30;;;16.40;;
8574;SDS011;4325;42.520;27.448;2023-04-24T04:09:28;27.57;;;15.67;;
8574;SDS011;4325;42.520;27.448;2023-04-24T04:11:54;25.67;;;15.23;;
8574;SDS011;4325;42.520;27.448;2023-04-24T04:14:23;23.80;;;12.97;;
8574;SDS011;4325;42.520;27.448;2023-04-24T04:16:49;16.73;;;11.87;;
8574;SDS011;4325;42.520;27.448;2023-04-24T04:19:17;21.83;;;12.17;;
8574;SDS011;4325;42.520;27.448;2023-04-24T04:21:44;17.10;;;11.30;;
8574;SDS011;4325;42.520;27.448;2023-04-24T04:24:15;21.97;;;10.40;;
8574;SDS011;4325;42.520;27.448;2023-04-24T04:26:42;22.43;;;10.70;;
8574;SDS011;4325;42.520;27.448;2023-04-24T04:29:11;17.67;;;10.23;;
8574;SDS011;4325;42.520;27.448;2023-04-24T04:31:40;24.43;;;9.93;;
8574;SDS011;4325;42.520;27.448;2023-04-24T04:34:07;14.97;;;9.40;;
8574;SDS011;4325;42.520;27.448;2023-04-24T04:36:34;23.73;;;9.93;;
8574;SDS011;4325;42.520;27.448;2023-04-24T04:39:01;16.07;;;8.90;;
8574;SDS011;4325;42.520;27.448;2023-04-24T04:41:29;18.10;;;9.67;;
8574;SDS011;4325;42.520;27.448;2023-04-24T04:43:55;17.57;;;10.03;;
8574;SDS011;4325;42.520;27.448;2023-04-24T04:46:23;20.97;;;9.23;;
8574;SDS011;4325;42.520;27.448;2023-04-24T04:48:52;20.47;;;9.13;;
8574;SDS011;4325;42.520;27.448;2023-04-24T04:51:19;17.63;;;9.00;;
8574;SDS011;4325;42.520;27.448;2023-04-24T04:53:46;15.03;;;9.70;;
8574;SDS011;4325;42.520;27.448;2023-04-24T04:56:13;18.97;;;9.53;;
8574;SDS011;4325;42.520;27.448;2023-04-24T04:58:40;16.67;;;10.07;;
8574;SDS011;4325;42.520;27.448;2023-04-24T05:01:07;20.93;;;9.23;;
8574;SDS011;4325;42.520;27.448;2023-04-24T05:03:33;21.93;;;10.43;;
8574;SDS011;4325;42.520;27.448;2023-04-24T05:06:02;30.23;;;18.63;;
8574;SDS011;4325;42.520;27.448;2023-04-24T05:08:29;32.17;;;18.43;;
8574;SDS011;4325;42.520;27.448;2023-04-24T05:10:56;21.17;;;10.20;;
8574;SDS011;4325;42.520;27.448;2023-04-24T05:13:23;33.67;;;13.43;;
8574;SDS011;4325;42.520;27.448;2023-04-24T05:15:49;27.50;;;13.20;;
8574;SDS011;4325;42.520;27.448;2023-04-24T05:18:16;26.57;;;12.60;;
8574;SDS011;4325;42.520;27.448;2023-04-24T05:20:43;24.77;;;15.67;;
8574;SDS011;4325;42.520;27.448;2023-04-24T05:23:11;21.63;;;13.00;;
8574;SDS011;4325;42.520;27.448;2023-04-24T05:25:38;20.37;;;13.17;;
8574;SDS011;4325;42.520;27.448;2023-04-24T05:28:06;28.20;;;15.37;;
8574;SDS011;4325;42.520;27.448;2023-04-24T05:30:33;39.43;;;17.27;;
8574;SDS011;4325;42.520;27.448;2023-04-24T05:33:00;30.20;;;16.40;;
8574;SDS011;4325;42.520;27.448;2023-04-24T05:35:27;24.53;;;15.67;;
8574;SDS011;4325;42.520;27.448;2023-04-24T05:37:53;23.90;;;13.83;;
8574;SDS011;4325;42.520;27.448;2023-04-24T05:40:22;33.83;;;14.73;;
8574;SDS011;4325;42.520;27.448;2023-04-24T05:42:49;28.20;;;17.03;;
8574;SDS011;4325;42.520;27.448;2023-04-24T05:45:16;31.63;;;16.80;;
8574;SDS011;4325;42.520;27.448;2023-04-24T05:47:43;29.07;;;16.53;;
8574;SDS011;4325;42.520;27.448;2023-04-24T05:50:10;33.23;;;17.27;;
8574;SDS011;4325;42.520;27.448;2023-04-24T05:52:37;36.97;;;18.83;;
8574;SDS011;4325;42.520;27.448;2023-04-24T05:55:04;35.03;;;25.83;;
8574;SDS011;4325;42.520;27.448;2023-04-24T05:57:33;34.70;;;21.67;;
8574;SDS011;4325;42.520;27.448;2023-04-24T06:00:00;34.43;;;19.17;;
8574;SDS011;4325;42.520;27.448;2023-04-24T06:02:26;32.83;;;21.40;;
8574;SDS011;4325;42.520;27.448;2023-04-24T06:04:57;30.67;;;18.70;;
8574;SDS011;4325;42.520;27.448;2023-04-24T06:07:24;34.03;;;16.67;;
8574;SDS011;4325;42.520;27.448;2023-04-24T06:09:51;26.50;;;15.83;;
8574;SDS011;4325;42.520;27.448;2023-04-24T06:12:18;29.20;;;15.90;;
8574;SDS011;4325;42.520;27.448;2023-04-24T06:14:46;28.73;;;14.70;;
8574;SDS011;4325;42.520;27.448;2023-04-24T06:17:13;24.43;;;14.37;;
8574;SDS011;4325;42.520;27.448;2023-04-24T06:19:40;24.03;;;14.87;;
8574;SDS011;4325;42.520;27.448;2023-04-24T06:22:07;28.13;;;15.10;;
8574;SDS011;4325;42.520;27.448;2023-04-24T06:24:34;21.87;;;15.90;;
8574;SDS011;4325;42.520;27.448;2023-04-24T06:27:01;37.47;;;16.33;;
8574;SDS011;4325;42.520;27.448;2023-04-24T06:29:27;40.17;;;19.07;;
8574;SDS011;4325;42.520;27.448;2023-04-24T06:31:56;27.20;;;17.30;;
8574;SDS011;4325;42.520;27.448;2023-04-24T06:34:23;29.73;;;18.93;;
8574;SDS011;4325;42.520;27.448;2023-04-24T06:36:50;33.03;;;17.00;;
8574;SDS011;4325;42.520;27.448;2023-04-24T06:39:17;22.03;;;13.93;;
8574;SDS011;4325;42.520;27.448;2023-04-24T06:41:43;19.80;;;12.20;;
8574;SDS011;4325;42.520;27.448;2023-04-24T06:44:10;20.57;;;12.47;;
8574;SDS011;4325;42.520;27.448;2023-04-24T06:46:56;28.03;;;12.93;;
8574;SDS011;4325;42.520;27.448;2023-04-24T06:49:23;30.37;;;12.67;;
8574;SDS011;4325;42.520;27.448;2023-04-24T06:51:50;30.57;;;17.43;;
8574;SDS011;4325;42.520;27.448;2023-04-24T06:54:16;21.30;;;14.10;;
8574;SDS011;4325;42.520;27.448;2023-04-24T06:56:43;13.23;;;8.57;;
8574;SDS011;4325;42.520;27.448;2023-04-24T06:59:12;18.10;;;9.83;;
8574;SDS011;4325;42.520;27.448;2023-04-24T07:01:39;12.10;;;10.20;;
8574;SDS011;4325;42.520;27.448;2023-04-24T07:04:07;17.93;;;9.53;;
8574;SDS011;4325;42.520;27.448;2023-04-24T07:06:34;25.13;;;9.77;;
8574;SDS011;4325;42.520;27.448;2023-04-24T07:09:02;14.40;;;9.87;;
8574;SDS011;4325;42.520;27.448;2023-04-24T07:11:29;16.50;;;10.00;;
8574;SDS011;4325;42.520;27.448;2023-04-24T07:13:56;23.33;;;12.57;;
8574;SDS011;4325;42.520;27.448;2023-04-24T07:16:23;18.57;;;10.47;;
8574;SDS011;4325;42.520;27.448;2023-04-24T07:18:50;13.73;;;9.93;;
8574;SDS011;4325;42.520;27.448;2023-04-24T07:21:20;28.77;;;10.13;;
8574;SDS011;4325;42.520;27.448;2023-04-24T07:23:46;22.53;;;11.10;;
8574;SDS011;4325;42.520;27.448;2023-04-24T07:26:13;21.93;;;10.47;;
8574;SDS011;4325;42.520;27.448;2023-04-24T07:28:40;22.03;;;11.63;;
8574;SDS011;4325;42.520;27.448;2023-04-24T07:31:07;19.63;;;10.17;;
8574;SDS011;4325;42.520;27.448;2023-04-24T07:33:35;18.77;;;9.63;;
8574;SDS011;4325;42.520;27.448;2023-04-24T07:36:01;13.80;;;9.70;;
8574;SDS011;4325;42.520;27.448;2023-04-24T07:38:30;10.30;;;8.57;;
8574;SDS011;4325;42.520;27.448;2023-04-24T07:40:57;25.73;;;10.03;;
8574;SDS011;4325;42.520;27.448;2023-04-24T07:43:24;22.50;;;10.73;;
8574;SDS011;4325;42.520;27.448;2023-04-24T07:45:51;13.50;;;8.77;;
8574;SDS011;4325;42.520;27.448;2023-04-24T07:48:18;15.77;;;8.97;;
8574;SDS011;4325;42.520;27.448;2023-04-24T07:50:47;20.73;;;9.70;;
8574;SDS011;4325;42.520;27.448;2023-04-24T07:53:13;16.97;;;8.60;;
8574;SDS011;4325;42.520;27.448;2023-04-24T07:55:42;16.70;;;8.87;;
8574;SDS011;4325;42.520;27.448;2023-04-24T07:58:09;16.53;;;8.70;;
8574;SDS011;4325;42.520;27.448;2023-04-24T08:00:36;13.23;;;9.63;;
8574;SDS011;4325;42.520;27.448;2023-04-24T08:03:02;14.87;;;7.67;;
8574;SDS011;4325;42.520;27.448;2023-04-24T08:05:29;16.90;;;7.57;;
8574;SDS011;4325;42.520;27.448;2023-04-24T08:07:56;9.83;;;6.93;;
8574;SDS011;4325;42.520;27.448;2023-04-24T08:10:23;12.80;;;6.60;;
8574;SDS011;4325;42.520;27.448;2023-04-24T08:12:52;12.07;;;6.70;;
8574;SDS011;4325;42.520;27.448;2023-04-24T08:15:20;11.37;;;6.43;;
8574;SDS011;4325;42.520;27.448;2023-04-24T08:17:47;15.83;;;6.80;;
8574;SDS011;4325;42.520;27.448;2023-04-24T08:20:15;10.63;;;6.30;;
8574;SDS011;4325;42.520;27.448;2023-04-24T08:22:42;13.87;;;6.07;;
8574;SDS011;4325;42.520;27.448;2023-04-24T08:25:10;17.83;;;5.90;;
8574;SDS011;4325;42.520;27.448;2023-04-24T08:27:37;8.13;;;6.10;;
8574;SDS011;4325;42.520;27.448;2023-04-24T08:30:06;13.67;;;6.37;;
8574;SDS011;4325;42.520;27.448;2023-04-24T08:32:33;9.63;;;5.70;;
8574;SDS011;4325;42.520;27.448;2023-04-24T08:35:00;9.70;;;5.50;;
8574;SDS011;4325;42.520;27.448;2023-04-24T08:37:27;9.73;;;5.87;;
8574;SDS011;4325;42.520;27.448;2023-04-24T08:39:54;8.53;;;5.60;;
8574;SDS011;4325;42.520;27.448;2023-04-24T08:42:21;25.17;;;5.23;;
8574;SDS011;4325;42.520;27.448;2023-04-24T08:44:49;10.50;;;4.20;;
8574;SDS011;4325;42.520;27.448;2023-04-24T08:47:17;11.20;;;4.77;;
8574;SDS011;4325;42.520;27.448;2023-04-24T08:49:46;11.27;;;4.17;;
8574;SDS011;4325;42.520;27.448;2023-04-24T08:52:14;8.55;;;4.10;;
8574;SDS011;4325;42.520;27.448;2023-04-24T08:54:42;8.25;;;3.90;;
8574;SDS011;4325;42.520;27.448;2023-04-24T08:57:11;15.05;;;4.22;;
8574;SDS011;4325;42.520;27.448;2023-04-24T08:59:39;11.90;;;4.03;;
8574;SDS011;4325;42.520;27.448;2023-04-24T09:02:08;6.78;;;3.47;;
8574;SDS011;4325;42.520;27.448;2023-04-24T09:04:38;8.25;;;4.00;;
8574;SDS011;4325;42.520;27.448;2023-04-24T09:07:06;11.63;;;3.47;;
8574;SDS011;4325;42.520;27.448;2023-04-24T09:09:36;4.38;;;3.35;;
8574;SDS011;4325;42.520;27.448;2023-04-24T09:12:05;17.70;;;3.30;;
8574;SDS011;4325;42.520;27.448;2023-04-24T09:14:32;9.93;;;3.42;;
8574;SDS011;4325;42.520;27.448;2023-04-24T09:17:01;6.53;;;3.17;;
8574;SDS011;4325;42.520;27.448;2023-04-24T09:19:28;9.57;;;3.00;;
8574;SDS011;4325;42.520;27.448;2023-04-24T09:21:56;6.93;;;3.33;;
8574;SDS011;4325;42.520;27.448;2023-04-24T09:24:23;6.88;;;3.05;;
8574;SDS011;4325;42.520;27.448;2023-04-24T09:26:55;9.20;;;3.75;;
8574;SDS011;4325;42.520;27.448;2023-04-24T09:29:23;9.80;;;3.83;;
8574;SDS011;4325;42.520;27.448;2023-04-24T09:31:51;9.55;;;3.75;;
8574;SDS011;4325;42.520;27.448;2023-04-24T09:34:21;9.10;;;4.00;;
8574;SDS011;4325;42.520;27.448;2023-04-24T09:36:49;13.13;;;4.03;;
8574;SDS011;4325;42.520;27.448;2023-04-24T09:39:18;8.45;;;3.90;;
8574;SDS011;4325;42.520;27.448;2023-04-24T09:41:46;11.48;;;3.95;;
8574;SDS011;4325;42.520;27.448;2023-04-24T09:44:14;12.25;;;4.90;;
8574;SDS011;4325;42.520;27.448;2023-04-24T09:46:42;12.65;;;4.00;;
8574;SDS011;4325;42.520;27.448;2023-04-24T09:49:10;11.02;;;3.90;;
8574;SDS011;4325;42.520;27.448;2023-04-24T09:51:39;12.70;;;3.63;;
8574;SDS011;4325;42.520;27.448;2023-04-24T09:54:11;10.35;;;3.88;;
8574;SDS011;4325;42.520;27.448;2023-04-24T09:56:44;12.43;;;3.05;;
8574;SDS011;4325;42.520;27.448;2023-04-24T09:59:11;8.98;;;4.03;;
8574;SDS011;4325;42.520;27.448;2023-04-24T10:01:39;7.75;;;3.15;;
8574;SDS011;4325;42.520;27.448;2023-04-24T10:04:18;9.27;;;3.53;;
8574;SDS011;4325;42.520;27.448;2023-04-24T10:06:46;7.47;;;3.33;;
8574;SDS011;4325;42.520;27.448;2023-04-24T10:09:15;9.93;;;3.55;;
8574;SDS011;4325;42.520;27.448;2023-04-24T10:11:44;8.77;;;3.72;;
8574;SDS011;4325;42.520;27.448;2023-04-24T10:14:12;7.68;;;3.70;;
8574;SDS011;4325;42.520;27.448;2023-04-24T10:16:40;18.63;;;3.85;;
8574;SDS011;4325;42.520;27.448;2023-04-24T10:19:09;10.25;;;3.10;;
8574;SDS011;4325;42.520;27.448;2023-04-24T10:21:38;6.43;;;3.80;;
8574;SDS011;4325;42.520;27.448;2023-04-24T10:24:07;9.38;;;3.17;;
8574;SDS011;4325;42.520;27.448;2023-04-24T10:26:35;7.45;;;3.03;;
8574;SDS011;4325;42.520;27.448;2023-04-24T10:29:04;9.43;;;3.22;;
8574;SDS011;4325;42.520;27.448;2023-04-24T10:31:34;9.88;;;3.22;;
8574;SDS011;4325;42.520;27.448;2023-04-24T10:34:03;6.05;;;2.75;;
8574;SDS011;4325;42.520;27.448;2023-04-24T10:36:31;9.60;;;3.05;;
8574;SDS011;4325;42.520;27.448;2023-04-24T10:39:00;9.00;;;3.10;;
8574;SDS011;4325;42.520;27.448;2023-04-24T10:41:30;11.63;;;3.35;;
8574;SDS011;4325;42.520;27.448;2023-04-24T10:44:05;7.63;;;3.30;;
8574;SDS011;4325;42.520;27.448;2023-04-24T10:46:32;10.68;;;3.10;;
8574;SDS011;4325;42.520;27.448;2023-04-24T10:48:59;7.95;;;3.40;;
8574;SDS011;4325;42.520;27.448;2023-04-24T10:54:24;11.40;;;3.60;;
8574;SDS011;4325;42.520;27.448;2023-04-24T10:56:52;13.80;;;3.63;;
8574;SDS011;4325;42.520;27.448;2023-04-24T10:59:27;10.68;;;3.30;;
8574;SDS011;4325;42.520;27.448;2023-04-24T11:02:02;8.18;;;3.15;;
8574;SDS011;4325;42.520;27.448;2023-04-24T11:04:29;8.77;;;3.08;;
8574;SDS011;4325;42.520;27.448;2023-04-24T11:06:57;6.93;;;3.20;;
8574;SDS011;4325;42.520;27.448;2023-04-24T11:09:26;6.88;;;3.17;;
8574;SDS011;4325;42.520;27.448;2023-04-24T11:12:02;7.32;;;3.38;;
8574;SDS011;4325;42.520;27.448;2023-04-24T11:14:43;6.72;;;3.30;;
8574;SDS011;4325;42.520;27.448;2023-04-24T11:17:29;9.70;;;3.13;;
8574;SDS011;4325;42.520;27.448;2023-04-24T11:20:00;9.35;;;3.00;;
8574;SDS011;4325;42.520;27.448;2023-04-24T11:22:28;15.35;;;2.90;;
8574;SDS011;4325;42.520;27.448;2023-04-24T11:24:59;3.97;;;2.63;;
8574;SDS011;4325;42.520;27.448;2023-04-24T11:27:29;12.55;;;3.88;;
8574;SDS011;4325;42.520;27.448;2023-04-24T11:30:02;8.40;;;3.05;;
8574;SDS011;4325;42.520;27.448;2023-04-24T11:32:30;9.52;;;3.20;;
8574;SDS011;4325;42.520;27.448;2023-04-24T11:35:02;8.02;;;3.42;;
8574;SDS011;4325;42.520;27.448;2023-04-24T11:37:33;8.48;;;3.20;;
8574;SDS011;4325;42.520;27.448;2023-04-24T11:40:02;10.98;;;3.30;;
8574;SDS011;4325;42.520;27.448;2023-04-24T11:42:33;9.75;;;3.63;;
8574;SDS011;4325;42.520;27.448;2023-04-24T11:45:06;14.40;;;3.40;;
8574;SDS011;4325;42.520;27.448;2023-04-24T11:47:34;7.35;;;2.95;;
8574;SDS011;4325;42.520;27.448;2023-04-24T11:50:02;6.78;;;2.90;;
8574;SDS011;4325;42.520;27.448;2023-04-24T11:52:30;12.05;;;3.30;;
8574;SDS011;4325;42.520;27.448;2023-04-24T11:54:57;12.07;;;3.38;;
8574;SDS011;4325;42.520;27.448;2023-04-24T11:57:24;10.07;;;2.90;;
8574;SDS011;4325;42.520;27.448;2023-04-24T11:59:54;9.10;;;3.13;;
8574;SDS011;4325;42.520;27.448;2023-04-24T12:02:23;7.53;;;2.75;;
8574;SDS011;4325;42.520;27.448;2023-04-24T12:04:50;6.40;;;3.33;;
8574;SDS011;4325;42.520;27.448;2023-04-24T12:07:17;6.00;;;3.15;;
8574;SDS011;4325;42.520;27.448;2023-04-24T12:09:45;7.00;;;3.13;;
8574;SDS011;4325;42.520;27.448;2023-04-24T12:12:13;8.70;;;3.15;;
8574;SDS011;4325;42.520;27.448;2023-04-24T12:14:42;4.88;;;2.67;;
8574;SDS011;4325;42.520;27.448;2023-04-24T12:17:10;6.43;;;3.00;;
8574;SDS011;4325;42.520;27.448;2023-04-24T12:19:44;5.97;;;2.53;;
8574;SDS011;4325;42.520;27.448;2023-04-24T12:22:12;5.90;;;2.60;;
8574;SDS011;4325;42.520;27.448;2023-04-24T12:27:24;7.70;;;2.95;;
8574;SDS011;4325;42.520;27.448;2023-04-24T12:29:52;11.98;;;3.15;;
8574;SDS011;4325;42.520;27.448;2023-04-24T12:32:19;8.98;;;3.17;;
8574;SDS011;4325;42.520;27.448;2023-04-24T12:34:48;9.48;;;3.53;;
8574;SDS011;4325;42.520;27.448;2023-04-24T12:37:16;5.05;;;2.60;;
8574;SDS011;4325;42.520;27.448;2023-04-24T12:39:44;8.82;;;3.20;;
8574;SDS011;4325;42.520;27.448;2023-04-24T12:42:25;7.30;;;2.80;;
8574;SDS011;4325;42.520;27.448;2023-04-24T12:44:56;11.70;;;3.43;;
8574;SDS011;4325;42.520;27.448;2023-04-24T12:47:25;12.07;;;3.40;;
8574;SDS011;4325;42.520;27.448;2023-04-24T12:49:53;9.87;;;3.67;;
8574;SDS011;4325;42.520;27.448;2023-04-24T12:52:20;8.13;;;3.37;;
8574;SDS011;4325;42.520;27.448;2023-04-24T12:54:48;8.83;;;3.20;;
8574;SDS011;4325;42.520;27.448;2023-04-24T12:57:16;13.77;;;3.87;;
8574;SDS011;4325;42.520;27.448;2023-04-24T12:59:43;11.17;;;3.40;;
8574;SDS011;4325;42.520;27.448;2023-04-24T13:02:10;7.87;;;3.60;;
8574;SDS011;4325;42.520;27.448;2023-04-24T13:04:37;16.37;;;3.73;;
8574;SDS011;4325;42.520;27.448;2023-04-24T13:07:06;12.40;;;3.40;;
8574;SDS011;4325;42.520;27.448;2023-04-24T13:09:34;10.00;;;4.27;;
8574;SDS011;4325;42.520;27.448;2023-04-24T13:12:01;7.37;;;3.40;;
8574;SDS011;4325;42.520;27.448;2023-04-24T13:14:28;9.13;;;4.43;;
8574;SDS011;4325;42.520;27.448;2023-04-24T13:16:54;9.43;;;3.70;;
8574;SDS011;4325;42.520;27.448;2023-04-24T13:19:21;13.73;;;4.10;;
8574;SDS011;4325;42.520;27.448;2023-04-24T13:21:50;8.33;;;3.97;;
8574;SDS011;4325;42.520;27.448;2023-04-24T13:24:18;14.53;;;3.43;;
8574;SDS011;4325;42.520;27.448;2023-04-24T13:26:45;11.20;;;4.13;;
8574;SDS011;4325;42.520;27.448;2023-04-24T13:29:12;12.00;;;4.10;;
8574;SDS011;4325;42.520;27.448;2023-04-24T13:31:38;9.53;;;4.17;;
8574;SDS011;4325;42.520;27.448;2023-04-24T13:34:05;6.70;;;3.70;;
8574;SDS011;4325;42.520;27.448;2023-04-24T13:36:32;16.50;;;4.10;;
8574;SDS011;4325;42.520;27.448;2023-04-24T13:39:00;6.70;;;3.37;;
8574;SDS011;4325;42.520;27.448;2023-04-24T13:41:29;8.03;;;3.67;;
8574;SDS011;4325;42.520;27.448;2023-04-24T13:43:56;10.13;;;3.20;;
8574;SDS011;4325;42.520;27.448;2023-04-24T13:46:23;15.70;;;3.90;;
8574;SDS011;4325;42.520;27.448;2023-04-24T13:48:50;10.50;;;3.87;;
8574;SDS011;4325;42.520;27.448;2023-04-24T13:51:17;12.23;;;3.30;;
8574;SDS011;4325;42.520;27.448;2023-04-24T13:53:44;11.30;;;3.73;;
8574;SDS011;4325;42.520;27.448;2023-04-24T13:56:11;11.67;;;3.97;;
8574;SDS011;4325;42.520;27.448;2023-04-24T13:58:40;13.73;;;3.57;;
8574;SDS011;4325;42.520;27.448;2023-04-24T14:01:07;12.13;;;3.70;;
8574;SDS011;4325;42.520;27.448;2023-04-24T14:03:34;13.70;;;3.87;;
8574;SDS011;4325;42.520;27.448;2023-04-24T14:06:01;8.20;;;3.63;;
8574;SDS011;4325;42.520;27.448;2023-04-24T14:08:28;10.50;;;3.97;;
8574;SDS011;4325;42.520;27.448;2023-04-24T14:10:54;4.93;;;3.30;;
8574;SDS011;4325;42.520;27.448;2023-04-24T14:13:21;7.67;;;3.37;;
8574;SDS011;4325;42.520;27.448;2023-04-24T14:15:50;10.80;;;3.50;;
8574;SDS011;4325;42.520;27.448;2023-04-24T14:18:17;10.47;;;3.70;;
8574;SDS011;4325;42.520;27.448;2023-04-24T14:20:45;11.23;;;3.53;;
8574;SDS011;4325;42.520;27.448;2023-04-24T14:23:11;11.53;;;3.77;;
8574;SDS011;4325;42.520;27.448;2023-04-24T14:25:38;13.10;;;3.60;;
8574;SDS011;4325;42.520;27.448;2023-04-24T14:28:05;13.00;;;4.00;;
8574;SDS011;4325;42.520;27.448;2023-04-24T14:30:32;9.57;;;3.47;;
8574;SDS011;4325;42.520;27.448;2023-04-24T14:33:00;9.73;;;4.00;;
8574;SDS011;4325;42.520;27.448;2023-04-24T14:35:27;9.43;;;3.40;;
8574;SDS011;4325;42.520;27.448;2023-04-24T14:37:56;12.37;;;3.73;;
8574;SDS011;4325;42.520;27.448;2023-04-24T14:40:23;7.67;;;3.17;;
8574;SDS011;4325;42.520;27.448;2023-04-24T14:42:50;10.77;;;3.50;;
8574;SDS011;4325;42.520;27.448;2023-04-24T14:45:18;12.33;;;3.67;;
8574;SDS011;4325;42.520;27.448;2023-04-24T14:47:45;12.83;;;3.07;;
8574;SDS011;4325;42.520;27.448;2023-04-24T14:50:13;16.03;;;3.60;;
8574;SDS011;4325;42.520;27.448;2023-04-24T14:52:40;11.43;;;4.10;;
8574;SDS011;4325;42.520;27.448;2023-04-24T14:55:07;13.73;;;3.67;;